sensor_id;sensor_type;location;lat;lon;timestamp;P1;durP1;ratioP1;P2;durP2;ratioP2
57790;SDS011;43621;51.798;21.588;2024-01-30T00:02:20;40.30;;;19.20;;
57790;SDS011;43621;51.798;21.588;2024-01-30T00:06:21;38.40;;;19.30;;
57790;SDS011;43621;51.798;21.588;2024-01-30T00:10:24;40.00;;;19.30;;
57790;SDS011;43621;51.798;21.588;2024-01-30T00:14:25;39.40;;;16.40;;
57790;SDS011;43621;51.798;21.588;2024-01-30T00:18:27;38.30;;;18.30;;
57790;SDS011;43621;51.798;21.588;2024-01-30T00:22:28;35.50;;;17.60;;
57790;SDS011;43621;51.798;21.588;2024-01-30T00:26:31;34.30;;;17.40;;
57790;SDS011;43621;51.798;21.588;2024-01-30T00:30:33;38.30;;;18.60;;
57790;SDS011;43621;51.798;21.588;2024-01-30T00:34:34;37.80;;;17.40;;
57790;SDS011;43621;51.798;21.588;2024-01-30T00:38:36;34.10;;;18.20;;
57790;SDS011;43621;51.798;21.588;2024-01-30T00:42:38;43.40;;;19.50;;
57790;SDS011;43621;51.798;21.588;2024-01-30T00:46:40;41.50;;;18.10;;
57790;SDS011;43621;51.798;21.588;2024-01-30T00:50:42;46.20;;;21.00;;
57790;SDS011;43621;51.798;21.588;2024-01-30T00:54:43;36.30;;;16.30;;
57790;SDS011;43621;51.798;21.588;2024-01-30T00:58:45;42.70;;;19.50;;
57790;SDS011;43621;51.798;21.588;2024-01-30T01:02:46;35.50;;;17.60;;
57790;SDS011;43621;51.798;21.588;2024-01-30T01:06:48;38.50;;;18.90;;
57790;SDS011;43621;51.798;21.588;2024-01-30T01:10:50;40.50;;;18.00;;
57790;SDS011;43621;51.798;21.588;2024-01-30T01:14:51;35.80;;;18.00;;
57790;SDS011;43621;51.798;21.588;2024-01-30T01:18:53;40.50;;;20.20;;
57790;SDS011;43621;51.798;21.588;2024-01-30T01:22:55;45.30;;;21.50;;
57790;SDS011;43621;51.798;21.588;2024-01-30T01:26:57;50.00;;;20.70;;
57790;SDS011;43621;51.798;21.588;2024-01-30T01:31:02;44.00;;;19.70;;
57790;SDS011;43621;51.798;21.588;2024-01-30T01:35:06;35.10;;;17.70;;
57790;SDS011;43621;51.798;21.588;2024-01-30T01:39:08;40.90;;;18.40;;
57790;SDS011;43621;51.798;21.588;2024-01-30T01:43:09;35.10;;;17.90;;
57790;SDS011;43621;51.798;21.588;2024-01-30T01:47:11;40.70;;;19.30;;
57790;SDS011;43621;51.798;21.588;2024-01-30T01:51:13;38.00;;;17.40;;
57790;SDS011;43621;51.798;21.588;2024-01-30T01:55:16;38.40;;;17.80;;
57790;SDS011;43621;51.798;21.588;2024-01-30T01:59:23;42.40;;;20.50;;
57790;SDS011;43621;51.798;21.588;2024-01-30T02:03:25;45.80;;;20.30;;
57790;SDS011;43621;51.798;21.588;2024-01-30T02:07:30;35.60;;;16.80;;
57790;SDS011;43621;51.798;21.588;2024-01-30T02:11:32;37.00;;;18.40;;
57790;SDS011;43621;51.798;21.588;2024-01-30T02:15:33;38.80;;;18.90;;
57790;SDS011;43621;51.798;21.588;2024-01-30T02:19:35;47.20;;;22.00;;
57790;SDS011;43621;51.798;21.588;2024-01-30T02:23:37;53.50;;;22.60;;
57790;SDS011;43621;51.798;21.588;2024-01-30T02:27:41;61.90;;;28.40;;
57790;SDS011;43621;51.798;21.588;2024-01-30T02:31:42;65.40;;;28.90;;
57790;SDS011;43621;51.798;21.588;2024-01-30T02:35:44;55.40;;;24.10;;
57790;SDS011;43621;51.798;21.588;2024-01-30T02:39:46;59.50;;;26.20;;
57790;SDS011;43621;51.798;21.588;2024-01-30T02:43:47;55.10;;;23.30;;
57790;SDS011;43621;51.798;21.588;2024-01-30T02:47:49;56.50;;;24.90;;
57790;SDS011;43621;51.798;21.588;2024-01-30T02:51:51;57.10;;;23.50;;
57790;SDS011;43621;51.798;21.588;2024-01-30T02:55:53;60.70;;;23.80;;
57790;SDS011;43621;51.798;21.588;2024-01-30T02:59:55;47.70;;;21.10;;
57790;SDS011;43621;51.798;21.588;2024-01-30T03:03:57;57.80;;;23.80;;
57790;SDS011;43621;51.798;21.588;2024-01-30T03:07:58;44.40;;;21.90;;
57790;SDS011;43621;51.798;21.588;2024-01-30T03:12:01;47.70;;;22.40;;
57790;SDS011;43621;51.798;21.588;2024-01-30T03:16:03;51.70;;;23.80;;
57790;SDS011;43621;51.798;21.588;2024-01-30T03:20:05;44.90;;;20.00;;
57790;SDS011;43621;51.798;21.588;2024-01-30T03:24:07;50.40;;;22.80;;
57790;SDS011;43621;51.798;21.588;2024-01-30T03:28:10;52.50;;;22.10;;
57790;SDS011;43621;51.798;21.588;2024-01-30T03:32:11;48.30;;;22.40;;
57790;SDS011;43621;51.798;21.588;2024-01-30T03:36:14;45.00;;;21.20;;
57790;SDS011;43621;51.798;21.588;2024-01-30T03:40:16;56.00;;;24.30;;
57790;SDS011;43621;51.798;21.588;2024-01-30T03:44:18;48.20;;;22.00;;
57790;SDS011;43621;51.798;21.588;2024-01-30T03:48:20;46.90;;;21.30;;
57790;SDS011;43621;51.798;21.588;2024-01-30T03:52:22;50.30;;;22.40;;
57790;SDS011;43621;51.798;21.588;2024-01-30T03:56:24;49.20;;;21.40;;
57790;SDS011;43621;51.798;21.588;2024-01-30T04:00:27;44.70;;;20.20;;
57790;SDS011;43621;51.798;21.588;2024-01-30T04:04:28;50.00;;;22.00;;
57790;SDS011;43621;51.798;21.588;2024-01-30T04:08:30;49.30;;;22.10;;
57790;SDS011;43621;51.798;21.588;2024-01-30T04:12:31;54.90;;;26.40;;
57790;SDS011;43621;51.798;21.588;2024-01-30T04:16:33;53.60;;;24.40;;
57790;SDS011;43621;51.798;21.588;2024-01-30T04:20:35;51.70;;;23.10;;
57790;SDS011;43621;51.798;21.588;2024-01-30T04:24:37;52.20;;;24.40;;
57790;SDS011;43621;51.798;21.588;2024-01-30T04:28:38;57.90;;;27.40;;
57790;SDS011;43621;51.798;21.588;2024-01-30T04:32:40;57.20;;;24.70;;
57790;SDS011;43621;51.798;21.588;2024-01-30T04:36:43;69.10;;;30.50;;
57790;SDS011;43621;51.798;21.588;2024-01-30T04:40:46;63.60;;;29.50;;
57790;SDS011;43621;51.798;21.588;2024-01-30T04:44:48;51.90;;;25.20;;
57790;SDS011;43621;51.798;21.588;2024-01-30T04:48:50;68.10;;;28.80;;
57790;SDS011;43621;51.798;21.588;2024-01-30T04:52:52;62.80;;;26.20;;
57790;SDS011;43621;51.798;21.588;2024-01-30T04:56:53;56.70;;;24.60;;
57790;SDS011;43621;51.798;21.588;2024-01-30T05:00:55;60.20;;;26.00;;
57790;SDS011;43621;51.798;21.588;2024-01-30T05:04:57;56.50;;;25.10;;
57790;SDS011;43621;51.798;21.588;2024-01-30T05:08:59;55.70;;;25.80;;
57790;SDS011;43621;51.798;21.588;2024-01-30T05:13:00;49.10;;;20.60;;
57790;SDS011;43621;51.798;21.588;2024-01-30T05:17:02;49.20;;;21.40;;
57790;SDS011;43621;51.798;21.588;2024-01-30T05:21:05;58.20;;;24.70;;
57790;SDS011;43621;51.798;21.588;2024-01-30T05:25:07;49.50;;;23.50;;
57790;SDS011;43621;51.798;21.588;2024-01-30T05:29:09;47.20;;;22.50;;
57790;SDS011;43621;51.798;21.588;2024-01-30T05:33:11;54.40;;;24.60;;
57790;SDS011;43621;51.798;21.588;2024-01-30T05:37:13;58.30;;;26.40;;
57790;SDS011;43621;51.798;21.588;2024-01-30T05:41:18;65.80;;;27.10;;
57790;SDS011;43621;51.798;21.588;2024-01-30T05:45:20;57.80;;;25.20;;
57790;SDS011;43621;51.798;21.588;2024-01-30T05:49:21;71.80;;;32.20;;
57790;SDS011;43621;51.798;21.588;2024-01-30T05:53:23;93.60;;;40.00;;
57790;SDS011;43621;51.798;21.588;2024-01-30T05:57:24;99.00;;;45.70;;
57790;SDS011;43621;51.798;21.588;2024-01-30T06:01:26;63.20;;;28.10;;
57790;SDS011;43621;51.798;21.588;2024-01-30T06:05:28;53.40;;;24.80;;
57790;SDS011;43621;51.798;21.588;2024-01-30T06:09:30;65.50;;;26.30;;
57790;SDS011;43621;51.798;21.588;2024-01-30T06:13:31;54.90;;;27.30;;
57790;SDS011;43621;51.798;21.588;2024-01-30T06:17:34;58.20;;;26.80;;
57790;SDS011;43621;51.798;21.588;2024-01-30T06:21:35;69.90;;;31.10;;
57790;SDS011;43621;51.798;21.588;2024-01-30T06:25:38;77.30;;;35.30;;
57790;SDS011;43621;51.798;21.588;2024-01-30T06:29:40;77.20;;;32.40;;
57790;SDS011;43621;51.798;21.588;2024-01-30T06:33:42;64.50;;;30.40;;
57790;SDS011;43621;51.798;21.588;2024-01-30T06:37:43;68.60;;;33.60;;
57790;SDS011;43621;51.798;21.588;2024-01-30T06:41:45;69.70;;;31.00;;
57790;SDS011;43621;51.798;21.588;2024-01-30T06:45:48;69.50;;;31.40;;
57790;SDS011;43621;51.798;21.588;2024-01-30T06:49:49;59.00;;;27.00;;
57790;SDS011;43621;51.798;21.588;2024-01-30T06:53:51;66.40;;;27.70;;
57790;SDS011;43621;51.798;21.588;2024-01-30T06:57:53;53.30;;;27.60;;
57790;SDS011;43621;51.798;21.588;2024-01-30T07:01:54;60.80;;;31.70;;
57790;SDS011;43621;51.798;21.588;2024-01-30T07:05:56;58.50;;;29.90;;
57790;SDS011;43621;51.798;21.588;2024-01-30T07:09:58;74.20;;;39.90;;
57790;SDS011;43621;51.798;21.588;2024-01-30T07:14:00;54.10;;;29.50;;
57790;SDS011;43621;51.798;21.588;2024-01-30T07:18:01;41.60;;;21.70;;
57790;SDS011;43621;51.798;21.588;2024-01-30T07:22:03;40.10;;;24.30;;
57790;SDS011;43621;51.798;21.588;2024-01-30T07:26:05;42.80;;;23.20;;
57790;SDS011;43621;51.798;21.588;2024-01-30T07:30:08;34.50;;;20.70;;
57790;SDS011;43621;51.798;21.588;2024-01-30T07:34:09;36.80;;;21.60;;
57790;SDS011;43621;51.798;21.588;2024-01-30T07:38:11;39.40;;;23.30;;
57790;SDS011;43621;51.798;21.588;2024-01-30T07:42:13;45.20;;;25.10;;
57790;SDS011;43621;51.798;21.588;2024-01-30T07:46:15;40.00;;;23.20;;
57790;SDS011;43621;51.798;21.588;2024-01-30T07:50:16;36.20;;;22.50;;
57790;SDS011;43621;51.798;21.588;2024-01-30T07:54:18;39.30;;;22.70;;
57790;SDS011;43621;51.798;21.588;2024-01-30T07:58:20;30.70;;;19.70;;
57790;SDS011;43621;51.798;21.588;2024-01-30T08:02:22;41.10;;;23.30;;
57790;SDS011;43621;51.798;21.588;2024-01-30T08:06:23;31.80;;;19.50;;
57790;SDS011;43621;51.798;21.588;2024-01-30T08:10:25;31.90;;;19.90;;
57790;SDS011;43621;51.798;21.588;2024-01-30T08:14:26;29.80;;;20.00;;
57790;SDS011;43621;51.798;21.588;2024-01-30T08:18:29;27.30;;;18.00;;
57790;SDS011;43621;51.798;21.588;2024-01-30T08:22:31;26.30;;;18.00;;
57790;SDS011;43621;51.798;21.588;2024-01-30T08:26:32;29.50;;;19.80;;
57790;SDS011;43621;51.798;21.588;2024-01-30T08:30:35;26.60;;;17.50;;
57790;SDS011;43621;51.798;21.588;2024-01-30T08:34:37;26.20;;;18.50;;
57790;SDS011;43621;51.798;21.588;2024-01-30T08:38:38;26.00;;;17.80;;
57790;SDS011;43621;51.798;21.588;2024-01-30T08:42:40;26.20;;;16.90;;
57790;SDS011;43621;51.798;21.588;2024-01-30T08:46:41;21.30;;;16.20;;
57790;SDS011;43621;51.798;21.588;2024-01-30T08:50:43;21.30;;;15.60;;
57790;SDS011;43621;51.798;21.588;2024-01-30T08:54:45;24.00;;;16.10;;
57790;SDS011;43621;51.798;21.588;2024-01-30T08:58:46;27.30;;;18.40;;
57790;SDS011;43621;51.798;21.588;2024-01-30T09:02:48;27.50;;;18.40;;
57790;SDS011;43621;51.798;21.588;2024-01-30T09:06:50;29.50;;;19.50;;
57790;SDS011;43621;51.798;21.588;2024-01-30T09:10:52;24.20;;;16.20;;
57790;SDS011;43621;51.798;21.588;2024-01-30T09:14:53;28.80;;;19.80;;
57790;SDS011;43621;51.798;21.588;2024-01-30T09:18:56;32.40;;;19.30;;
57790;SDS011;43621;51.798;21.588;2024-01-30T09:22:58;28.70;;;17.30;;
57790;SDS011;43621;51.798;21.588;2024-01-30T09:26:59;26.00;;;15.50;;
57790;SDS011;43621;51.798;21.588;2024-01-30T09:31:01;23.40;;;15.10;;
57790;SDS011;43621;51.798;21.588;2024-01-30T09:35:04;23.90;;;15.80;;
57790;SDS011;43621;51.798;21.588;2024-01-30T09:39:06;25.70;;;16.40;;
57790;SDS011;43621;51.798;21.588;2024-01-30T09:43:08;22.10;;;15.10;;
57790;SDS011;43621;51.798;21.588;2024-01-30T09:47:18;26.40;;;15.10;;
57790;SDS011;43621;51.798;21.588;2024-01-30T09:51:20;24.00;;;15.20;;
57790;SDS011;43621;51.798;21.588;2024-01-30T09:55:23;23.60;;;15.80;;
57790;SDS011;43621;51.798;21.588;2024-01-30T09:59:25;24.00;;;14.90;;
57790;SDS011;43621;51.798;21.588;2024-01-30T10:03:27;20.80;;;13.40;;
57790;SDS011;43621;51.798;21.588;2024-01-30T10:07:29;21.40;;;13.90;;
57790;SDS011;43621;51.798;21.588;2024-01-30T10:11:32;20.00;;;13.80;;
57790;SDS011;43621;51.798;21.588;2024-01-30T10:15:33;21.40;;;13.40;;
57790;SDS011;43621;51.798;21.588;2024-01-30T10:19:37;21.20;;;14.20;;
57790;SDS011;43621;51.798;21.588;2024-01-30T10:23:39;21.40;;;14.10;;
57790;SDS011;43621;51.798;21.588;2024-01-30T10:27:41;20.80;;;14.20;;
57790;SDS011;43621;51.798;21.588;2024-01-30T10:31:43;20.10;;;13.00;;
57790;SDS011;43621;51.798;21.588;2024-01-30T10:35:44;23.90;;;15.10;;
57790;SDS011;43621;51.798;21.588;2024-01-30T10:39:47;22.10;;;13.90;;
57790;SDS011;43621;51.798;21.588;2024-01-30T10:43:50;21.60;;;14.80;;
57790;SDS011;43621;51.798;21.588;2024-01-30T10:48:03;19.80;;;13.00;;
57790;SDS011;43621;51.798;21.588;2024-01-30T10:52:07;18.60;;;13.00;;
57790;SDS011;43621;51.798;21.588;2024-01-30T10:56:10;22.10;;;13.50;;
57790;SDS011;43621;51.798;21.588;2024-01-30T11:00:14;16.80;;;10.90;;
57790;SDS011;43621;51.798;21.588;2024-01-30T11:04:17;16.80;;;11.20;;
57790;SDS011;43621;51.798;21.588;2024-01-30T11:08:22;18.00;;;12.50;;
57790;SDS011;43621;51.798;21.588;2024-01-30T11:12:26;18.10;;;11.40;;
57790;SDS011;43621;51.798;21.588;2024-01-30T11:16:30;20.30;;;11.90;;
57790;SDS011;43621;51.798;21.588;2024-01-30T11:20:33;18.60;;;11.70;;
57790;SDS011;43621;51.798;21.588;2024-01-30T11:24:39;20.40;;;12.40;;
57790;SDS011;43621;51.798;21.588;2024-01-30T11:28:42;19.20;;;11.70;;
57790;SDS011;43621;51.798;21.588;2024-01-30T11:32:44;20.60;;;14.10;;
57790;SDS011;43621;51.798;21.588;2024-01-30T11:36:45;21.30;;;12.10;;
57790;SDS011;43621;51.798;21.588;2024-01-30T11:40:54;18.00;;;11.20;;
57790;SDS011;43621;51.798;21.588;2024-01-30T11:45:02;22.90;;;13.00;;
57790;SDS011;43621;51.798;21.588;2024-01-30T11:49:04;20.70;;;12.20;;
57790;SDS011;43621;51.798;21.588;2024-01-30T11:53:06;24.10;;;12.40;;
57790;SDS011;43621;51.798;21.588;2024-01-30T11:57:08;20.20;;;11.50;;
57790;SDS011;43621;51.798;21.588;2024-01-30T12:01:10;20.30;;;11.30;;
57790;SDS011;43621;51.798;21.588;2024-01-30T12:05:12;21.20;;;12.80;;
57790;SDS011;43621;51.798;21.588;2024-01-30T12:09:14;19.20;;;11.90;;
57790;SDS011;43621;51.798;21.588;2024-01-30T12:13:15;18.80;;;12.00;;
57790;SDS011;43621;51.798;21.588;2024-01-30T12:17:30;23.00;;;12.20;;
57790;SDS011;43621;51.798;21.588;2024-01-30T12:21:33;21.70;;;12.30;;
57790;SDS011;43621;51.798;21.588;2024-01-30T12:25:36;20.60;;;12.20;;
57790;SDS011;43621;51.798;21.588;2024-01-30T12:29:41;19.50;;;11.80;;
57790;SDS011;43621;51.798;21.588;2024-01-30T12:33:43;17.10;;;10.60;;
57790;SDS011;43621;51.798;21.588;2024-01-30T12:37:45;23.60;;;12.90;;
57790;SDS011;43621;51.798;21.588;2024-01-30T12:41:47;20.00;;;12.20;;
57790;SDS011;43621;51.798;21.588;2024-01-30T12:45:49;20.80;;;12.60;;
57790;SDS011;43621;51.798;21.588;2024-01-30T12:49:51;22.80;;;12.10;;
57790;SDS011;43621;51.798;21.588;2024-01-30T12:53:55;24.80;;;12.90;;
57790;SDS011;43621;51.798;21.588;2024-01-30T12:57:57;21.90;;;11.90;;
57790;SDS011;43621;51.798;21.588;2024-01-30T13:01:59;21.70;;;12.20;;
57790;SDS011;43621;51.798;21.588;2024-01-30T13:06:02;20.10;;;11.10;;
57790;SDS011;43621;51.798;21.588;2024-01-30T13:10:04;20.80;;;11.00;;
57790;SDS011;43621;51.798;21.588;2024-01-30T13:14:06;22.30;;;12.90;;
57790;SDS011;43621;51.798;21.588;2024-01-30T13:18:08;24.20;;;13.10;;
57790;SDS011;43621;51.798;21.588;2024-01-30T13:22:10;20.50;;;10.40;;
57790;SDS011;43621;51.798;21.588;2024-01-30T13:26:11;22.40;;;11.90;;
57790;SDS011;43621;51.798;21.588;2024-01-30T13:30:13;20.60;;;11.10;;
57790;SDS011;43621;51.798;21.588;2024-01-30T13:34:15;25.40;;;13.40;;
57790;SDS011;43621;51.798;21.588;2024-01-30T13:38:17;43.60;;;16.80;;
57790;SDS011;43621;51.798;21.588;2024-01-30T13:42:19;33.70;;;21.20;;
57790;SDS011;43621;51.798;21.588;2024-01-30T13:46:20;35.30;;;22.60;;
57790;SDS011;43621;51.798;21.588;2024-01-30T13:50:22;39.90;;;17.30;;
57790;SDS011;43621;51.798;21.588;2024-01-30T13:54:24;34.10;;;19.70;;
57790;SDS011;43621;51.798;21.588;2024-01-30T13:58:25;64.80;;;37.90;;
57790;SDS011;43621;51.798;21.588;2024-01-30T14:02:27;45.30;;;25.40;;
57790;SDS011;43621;51.798;21.588;2024-01-30T14:06:29;34.80;;;16.50;;
57790;SDS011;43621;51.798;21.588;2024-01-30T14:10:30;42.00;;;25.40;;
57790;SDS011;43621;51.798;21.588;2024-01-30T14:14:32;39.70;;;21.00;;
57790;SDS011;43621;51.798;21.588;2024-01-30T14:18:34;36.70;;;17.60;;
57790;SDS011;43621;51.798;21.588;2024-01-30T14:22:36;41.00;;;19.20;;
57790;SDS011;43621;51.798;21.588;2024-01-30T14:26:38;42.70;;;20.10;;
57790;SDS011;43621;51.798;21.588;2024-01-30T14:30:40;39.50;;;19.00;;
57790;SDS011;43621;51.798;21.588;2024-01-30T14:34:41;78.80;;;38.90;;
57790;SDS011;43621;51.798;21.588;2024-01-30T14:38:43;73.30;;;35.80;;
57790;SDS011;43621;51.798;21.588;2024-01-30T14:42:46;84.90;;;40.30;;
57790;SDS011;43621;51.798;21.588;2024-01-30T14:46:48;66.50;;;33.20;;
57790;SDS011;43621;51.798;21.588;2024-01-30T14:50:50;60.20;;;28.80;;
57790;SDS011;43621;51.798;21.588;2024-01-30T14:54:52;57.90;;;30.30;;
57790;SDS011;43621;51.798;21.588;2024-01-30T14:58:54;63.50;;;28.60;;
57790;SDS011;43621;51.798;21.588;2024-01-30T15:02:55;58.40;;;25.70;;
57790;SDS011;43621;51.798;21.588;2024-01-30T15:06:57;41.70;;;22.70;;
57790;SDS011;43621;51.798;21.588;2024-01-30T15:10:59;41.90;;;26.60;;
57790;SDS011;43621;51.798;21.588;2024-01-30T15:15:00;39.90;;;23.20;;
57790;SDS011;43621;51.798;21.588;2024-01-30T15:19:02;49.80;;;22.10;;
57790;SDS011;43621;51.798;21.588;2024-01-30T15:23:06;29.90;;;16.10;;
57790;SDS011;43621;51.798;21.588;2024-01-30T15:27:07;33.20;;;17.00;;
57790;SDS011;43621;51.798;21.588;2024-01-30T15:31:09;66.70;;;35.10;;
57790;SDS011;43621;51.798;21.588;2024-01-30T15:35:11;56.10;;;30.00;;
57790;SDS011;43621;51.798;21.588;2024-01-30T15:39:12;52.30;;;25.20;;
57790;SDS011;43621;51.798;21.588;2024-01-30T15:43:16;54.60;;;26.30;;
57790;SDS011;43621;51.798;21.588;2024-01-30T15:47:18;117.90;;;64.60;;
57790;SDS011;43621;51.798;21.588;2024-01-30T15:51:19;117.70;;;68.00;;
57790;SDS011;43621;51.798;21.588;2024-01-30T15:55:21;87.40;;;48.00;;
57790;SDS011;43621;51.798;21.588;2024-01-30T15:59:22;95.00;;;43.60;;
57790;SDS011;43621;51.798;21.588;2024-01-30T16:03:24;90.40;;;46.50;;
57790;SDS011;43621;51.798;21.588;2024-01-30T16:07:25;126.20;;;63.50;;
57790;SDS011;43621;51.798;21.588;2024-01-30T16:11:27;494.00;;;254.40;;
57790;SDS011;43621;51.798;21.588;2024-01-30T16:15:29;363.50;;;186.60;;
57790;SDS011;43621;51.798;21.588;2024-01-30T16:19:31;349.10;;;183.10;;
57790;SDS011;43621;51.798;21.588;2024-01-30T16:23:34;286.20;;;135.60;;
57790;SDS011;43621;51.798;21.588;2024-01-30T16:27:35;249.50;;;119.80;;
57790;SDS011;43621;51.798;21.588;2024-01-30T16:31:37;252.80;;;115.30;;
57790;SDS011;43621;51.798;21.588;2024-01-30T16:35:39;184.60;;;84.80;;
57790;SDS011;43621;51.798;21.588;2024-01-30T16:39:42;160.40;;;79.10;;
57790;SDS011;43621;51.798;21.588;2024-01-30T16:43:44;153.80;;;77.20;;
57790;SDS011;43621;51.798;21.588;2024-01-30T16:47:45;142.30;;;71.90;;
57790;SDS011;43621;51.798;21.588;2024-01-30T16:51:47;122.40;;;59.80;;
57790;SDS011;43621;51.798;21.588;2024-01-30T16:55:48;273.70;;;152.50;;
57790;SDS011;43621;51.798;21.588;2024-01-30T16:59:50;166.40;;;82.50;;
57790;SDS011;43621;51.798;21.588;2024-01-30T17:03:52;208.50;;;98.80;;
57790;SDS011;43621;51.798;21.588;2024-01-30T17:07:53;198.60;;;86.70;;
57790;SDS011;43621;51.798;21.588;2024-01-30T17:11:55;197.90;;;88.10;;
57790;SDS011;43621;51.798;21.588;2024-01-30T17:15:57;185.70;;;88.90;;
57790;SDS011;43621;51.798;21.588;2024-01-30T17:19:58;198.60;;;97.70;;
57790;SDS011;43621;51.798;21.588;2024-01-30T17:24:00;207.90;;;94.40;;
57790;SDS011;43621;51.798;21.588;2024-01-30T17:28:02;214.30;;;97.40;;
57790;SDS011;43621;51.798;21.588;2024-01-30T17:32:04;159.10;;;68.70;;
57790;SDS011;43621;51.798;21.588;2024-01-30T17:36:05;167.50;;;74.90;;
57790;SDS011;43621;51.798;21.588;2024-01-30T17:40:07;210.30;;;94.80;;
57790;SDS011;43621;51.798;21.588;2024-01-30T17:44:09;210.00;;;98.60;;
57790;SDS011;43621;51.798;21.588;2024-01-30T17:48:12;208.40;;;93.90;;
57790;SDS011;43621;51.798;21.588;2024-01-30T17:52:14;203.40;;;91.10;;
57790;SDS011;43621;51.798;21.588;2024-01-30T17:56:17;192.10;;;85.70;;
57790;SDS011;43621;51.798;21.588;2024-01-30T18:00:19;215.40;;;97.40;;
57790;SDS011;43621;51.798;21.588;2024-01-30T18:04:21;203.90;;;95.20;;
57790;SDS011;43621;51.798;21.588;2024-01-30T18:08:23;197.70;;;86.40;;
57790;SDS011;43621;51.798;21.588;2024-01-30T18:12:25;170.20;;;74.70;;
57790;SDS011;43621;51.798;21.588;2024-01-30T18:16:27;182.00;;;82.00;;
57790;SDS011;43621;51.798;21.588;2024-01-30T18:20:28;165.90;;;76.70;;
57790;SDS011;43621;51.798;21.588;2024-01-30T18:24:30;120.20;;;56.50;;
57790;SDS011;43621;51.798;21.588;2024-01-30T18:28:31;112.10;;;57.50;;
57790;SDS011;43621;51.798;21.588;2024-01-30T18:32:33;107.30;;;54.00;;
57790;SDS011;43621;51.798;21.588;2024-01-30T18:36:34;94.30;;;46.20;;
57790;SDS011;43621;51.798;21.588;2024-01-30T18:40:38;97.40;;;47.30;;
57790;SDS011;43621;51.798;21.588;2024-01-30T18:44:39;86.90;;;41.70;;
57790;SDS011;43621;51.798;21.588;2024-01-30T18:48:41;102.60;;;51.10;;
57790;SDS011;43621;51.798;21.588;2024-01-30T18:52:43;74.60;;;37.40;;
57790;SDS011;43621;51.798;21.588;2024-01-30T18:56:46;78.90;;;38.70;;
57790;SDS011;43621;51.798;21.588;2024-01-30T19:00:48;78.60;;;40.20;;
57790;SDS011;43621;51.798;21.588;2024-01-30T19:04:50;81.00;;;36.10;;
57790;SDS011;43621;51.798;21.588;2024-01-30T19:08:53;79.70;;;38.50;;
57790;SDS011;43621;51.798;21.588;2024-01-30T19:12:55;106.50;;;50.70;;
57790;SDS011;43621;51.798;21.588;2024-01-30T19:16:56;162.00;;;70.70;;
57790;SDS011;43621;51.798;21.588;2024-01-30T19:20:58;115.30;;;51.00;;
57790;SDS011;43621;51.798;21.588;2024-01-30T19:24:59;109.30;;;50.40;;
57790;SDS011;43621;51.798;21.588;2024-01-30T19:29:05;97.90;;;44.40;;
57790;SDS011;43621;51.798;21.588;2024-01-30T19:33:07;94.50;;;43.00;;
57790;SDS011;43621;51.798;21.588;2024-01-30T19:37:09;99.30;;;45.90;;
57790;SDS011;43621;51.798;21.588;2024-01-30T19:41:11;88.40;;;44.90;;
57790;SDS011;43621;51.798;21.588;2024-01-30T19:45:13;92.20;;;45.10;;
57790;SDS011;43621;51.798;21.588;2024-01-30T19:49:15;113.00;;;47.80;;
57790;SDS011;43621;51.798;21.588;2024-01-30T19:53:17;128.50;;;54.10;;
57790;SDS011;43621;51.798;21.588;2024-01-30T19:57:19;183.90;;;88.00;;
57790;SDS011;43621;51.798;21.588;2024-01-30T20:01:20;152.30;;;71.90;;
57790;SDS011;43621;51.798;21.588;2024-01-30T20:05:23;132.30;;;60.70;;
57790;SDS011;43621;51.798;21.588;2024-01-30T20:09:24;145.90;;;63.90;;
57790;SDS011;43621;51.798;21.588;2024-01-30T20:13:26;119.00;;;51.20;;
57790;SDS011;43621;51.798;21.588;2024-01-30T20:17:27;136.50;;;54.30;;
57790;SDS011;43621;51.798;21.588;2024-01-30T20:21:29;131.90;;;48.90;;
57790;SDS011;43621;51.798;21.588;2024-01-30T20:25:30;114.50;;;46.10;;
57790;SDS011;43621;51.798;21.588;2024-01-30T20:29:32;101.50;;;42.90;;
57790;SDS011;43621;51.798;21.588;2024-01-30T20:33:34;93.30;;;41.30;;
57790;SDS011;43621;51.798;21.588;2024-01-30T20:37:36;96.20;;;42.60;;
57790;SDS011;43621;51.798;21.588;2024-01-30T20:41:39;89.20;;;41.20;;
57790;SDS011;43621;51.798;21.588;2024-01-30T20:45:41;74.10;;;36.50;;
57790;SDS011;43621;51.798;21.588;2024-01-30T20:49:42;68.70;;;29.60;;
57790;SDS011;43621;51.798;21.588;2024-01-30T20:53:44;64.30;;;32.30;;
57790;SDS011;43621;51.798;21.588;2024-01-30T20:57:46;65.60;;;32.10;;
57790;SDS011;43621;51.798;21.588;2024-01-30T21:01:47;59.20;;;31.70;;
57790;SDS011;43621;51.798;21.588;2024-01-30T21:05:49;63.80;;;33.40;;
57790;SDS011;43621;51.798;21.588;2024-01-30T21:09:50;64.70;;;34.80;;
57790;SDS011;43621;51.798;21.588;2024-01-30T21:13:52;69.10;;;33.90;;
57790;SDS011;43621;51.798;21.588;2024-01-30T21:17:54;64.60;;;30.70;;
57790;SDS011;43621;51.798;21.588;2024-01-30T21:21:55;64.40;;;32.00;;
57790;SDS011;43621;51.798;21.588;2024-01-30T21:25:57;69.70;;;31.50;;
57790;SDS011;43621;51.798;21.588;2024-01-30T21:29:59;64.50;;;29.10;;
57790;SDS011;43621;51.798;21.588;2024-01-30T21:34:00;67.50;;;32.50;;
57790;SDS011;43621;51.798;21.588;2024-01-30T21:38:02;67.20;;;31.60;;
57790;SDS011;43621;51.798;21.588;2024-01-30T21:42:05;67.40;;;29.30;;
57790;SDS011;43621;51.798;21.588;2024-01-30T21:46:07;61.10;;;28.00;;
57790;SDS011;43621;51.798;21.588;2024-01-30T21:50:09;74.80;;;33.20;;
57790;SDS011;43621;51.798;21.588;2024-01-30T21:54:10;85.60;;;36.70;;
57790;SDS011;43621;51.798;21.588;2024-01-30T21:58:12;81.10;;;35.00;;
57790;SDS011;43621;51.798;21.588;2024-01-30T22:02:14;87.80;;;35.30;;
57790;SDS011;43621;51.798;21.588;2024-01-30T22:06:15;81.30;;;35.00;;
57790;SDS011;43621;51.798;21.588;2024-01-30T22:10:17;80.60;;;33.60;;
57790;SDS011;43621;51.798;21.588;2024-01-30T22:14:18;87.50;;;36.40;;
57790;SDS011;43621;51.798;21.588;2024-01-30T22:18:20;76.10;;;34.10;;
57790;SDS011;43621;51.798;21.588;2024-01-30T22:22:21;59.60;;;30.60;;
57790;SDS011;43621;51.798;21.588;2024-01-30T22:26:23;62.20;;;27.50;;
57790;SDS011;43621;51.798;21.588;2024-01-30T22:30:24;55.00;;;24.60;;
57790;SDS011;43621;51.798;21.588;2024-01-30T22:34:26;50.90;;;25.20;;
57790;SDS011;43621;51.798;21.588;2024-01-30T22:38:28;55.80;;;26.90;;
57790;SDS011;43621;51.798;21.588;2024-01-30T22:42:30;57.60;;;28.90;;
57790;SDS011;43621;51.798;21.588;2024-01-30T22:46:31;59.80;;;25.90;;
57790;SDS011;43621;51.798;21.588;2024-01-30T22:50:33;56.80;;;26.10;;
57790;SDS011;43621;51.798;21.588;2024-01-30T22:54:34;52.80;;;25.30;;
57790;SDS011;43621;51.798;21.588;2024-01-30T22:58:36;64.50;;;30.10;;
57790;SDS011;43621;51.798;21.588;2024-01-30T23:02:37;55.50;;;25.70;;
57790;SDS011;43621;51.798;21.588;2024-01-30T23:06:39;65.70;;;28.00;;
57790;SDS011;43621;51.798;21.588;2024-01-30T23:10:40;63.10;;;27.90;;